createdAt,value
2019-04-24T00:04:03.427Z,9.50
2019-04-24T00:06:29.951Z,7.80
2019-04-24T00:08:58.922Z,8.57
2019-04-24T00:11:44.265Z,9.97
2019-04-24T00:14:23.897Z,8.87
2019-04-24T00:17:04.250Z,7.73
2019-04-24T00:19:27.695Z,9.90
2019-04-24T00:22:04.932Z,10.77
2019-04-24T00:27:15.427Z,8.73
2019-04-24T00:29:38.726Z,12.13
2019-04-24T00:32:02.361Z,8.60
2019-04-24T00:37:09.579Z,8.77
2019-04-24T00:39:34.977Z,9.93
2019-04-24T00:44:32.658Z,9.10
2019-04-24T00:47:15.866Z,9.20
2019-04-24T00:49:39.932Z,11.03
2019-04-24T00:52:09.367Z,8.87
2019-04-24T00:57:33.672Z,11.37
2019-04-24T00:59:41.643Z,10.53
2019-04-24T01:08:14.543Z,8.33
2019-04-24T01:11:11.780Z,9.53
2019-04-24T01:13:33.227Z,8.83
2019-04-24T01:18:37.071Z,10.03
2019-04-24T01:21:14.504Z,8.30
2019-04-24T01:23:34.798Z,10.20
2019-04-24T01:34:17.789Z,13.63
2019-04-24T01:44:58.322Z,8.77
2019-04-24T01:49:50.037Z,10.27
2019-04-24T01:52:40.441Z,9.40
2019-04-24T01:54:58.820Z,9.17
2019-04-24T01:57:29.175Z,10.73
2019-04-24T01:59:54.956Z,10.47
2019-04-24T02:05:00.470Z,11.00
2019-04-24T02:07:39.062Z,9.63
2019-04-24T02:17:59.016Z,9.93
2019-04-24T02:23:06.678Z,8.70
2019-04-24T02:25:44.899Z,12.20
2019-04-24T02:28:18.773Z,9.53
2019-04-24T02:31:07.841Z,9.80
2019-04-24T02:36:31.924Z,9.70
2019-04-24T02:41:37.575Z,10.20
2019-04-24T02:43:57.090Z,9.40
2019-04-24T02:49:15.301Z,9.50
2019-04-24T03:01:29.676Z,9.63
2019-04-24T03:04:01.548Z,9.17
2019-04-24T03:09:08.059Z,9.77
2019-04-24T03:14:46.787Z,9.57
2019-04-24T03:25:05.643Z,9.57
2019-04-24T03:30:02.625Z,10.60
2019-04-24T03:40:57.601Z,9.17
2019-04-24T03:45:24.292Z,12.37
2019-04-24T03:51:45.073Z,10.17
2019-04-24T04:04:31.826Z,10.77
2019-04-24T04:07:01.799Z,10.93
2019-04-24T04:09:39.679Z,12.13
2019-04-24T04:12:12.800Z,11.40
2019-04-24T04:27:34.407Z,12.10
2019-04-24T04:30:10.106Z,10.90
2019-04-24T04:35:29.715Z,11.13
2019-04-24T04:41:14.100Z,14.50
2019-04-24T04:43:49.018Z,11.80
2019-04-24T04:46:28.860Z,12.57
2019-04-24T04:48:58.403Z,13.20
2019-04-24T04:59:26.922Z,14.37
2019-04-24T05:02:44.737Z,19.53
2019-04-24T05:15:15.030Z,13.10
2019-04-24T05:20:00.659Z,12.23
2019-04-24T05:22:34.249Z,13.27
2019-04-24T05:25:19.519Z,13.27
2019-04-24T05:27:45.192Z,12.30
2019-04-24T05:41:10.040Z,13.40
2019-04-24T05:46:24.442Z,12.60
2019-04-24T05:52:00.529Z,13.13
2019-04-24T05:54:44.324Z,12.87
2019-04-24T06:00:14.596Z,16.97
2019-04-24T06:02:47.893Z,13.07
2019-04-24T06:05:21.154Z,12.83
2019-04-24T06:08:07.079Z,15.43
2019-04-24T06:13:44.801Z,10.50
2019-04-24T06:22:18.629Z,11.23
2019-04-24T06:29:53.431Z,11.23
2019-04-24T06:38:18.498Z,11.37
2019-04-24T06:43:41.519Z,9.63
2019-04-24T06:46:10.549Z,12.90
2019-04-24T06:48:41.158Z,9.63
2019-04-24T06:51:16.296Z,10.13
2019-04-24T06:54:00.821Z,10.13
2019-04-24T06:59:12.479Z,9.40
2019-04-24T07:01:57.854Z,9.90
2019-04-24T07:04:45.484Z,12.63
2019-04-24T07:06:49.237Z,9.43
2019-04-24T07:09:45.630Z,10.67
2019-04-24T07:12:24.426Z,10.00
2019-04-24T07:17:58.673Z,8.67
2019-04-24T07:20:34.664Z,10.97
2019-04-24T07:23:26.398Z,8.83
2019-04-24T07:28:35.089Z,9.90
2019-04-24T07:31:41.558Z,9.27
2019-04-24T07:34:08.814Z,8.50
2019-04-24T07:36:52.363Z,9.13
2019-04-24T07:39:36.970Z,8.33
2019-04-24T07:44:29.141Z,8.47
2019-04-24T07:47:03.045Z,10.80
2019-04-24T07:52:09.700Z,9.63
2019-04-24T07:57:24.922Z,10.33
2019-04-24T08:02:49.713Z,8.73
2019-04-24T08:07:50.584Z,8.57
2019-04-24T08:15:59.909Z,7.70
2019-04-24T08:18:27.840Z,8.97
2019-04-24T08:21:07.008Z,8.50
2019-04-24T08:31:31.349Z,10.73
2019-04-24T08:34:22.442Z,8.67
2019-04-24T08:36:37.268Z,9.10
2019-04-24T08:42:44.889Z,9.70
2019-04-24T08:45:12.815Z,9.47
2019-04-24T08:47:53.913Z,8.73
2019-04-24T08:52:50.828Z,8.83
2019-04-24T08:55:20.113Z,9.40
2019-04-24T09:00:20.077Z,10.33
2019-04-24T09:03:32.577Z,11.10
2019-04-24T09:08:34.998Z,9.87
2019-04-24T09:16:40.823Z,10.00
2019-04-24T09:19:02.745Z,11.87
2019-04-24T09:21:35.242Z,10.50
2019-04-24T09:27:13.046Z,14.07
2019-04-24T09:29:57.212Z,9.90
2019-04-24T09:34:51.574Z,10.20
2019-04-24T09:37:25.058Z,10.00
2019-04-24T09:43:11.254Z,10.20
2019-04-24T09:55:51.479Z,11.03
2019-04-24T09:58:34.160Z,12.37
2019-04-24T10:01:39.930Z,8.80
2019-04-24T10:04:20.662Z,10.60
2019-04-24T10:07:05.532Z,8.93
2019-04-24T10:09:15.119Z,9.47
2019-04-24T10:14:44.597Z,8.50
2019-04-24T10:22:49.193Z,11.73
2019-04-24T10:25:15.823Z,9.60
2019-04-24T10:27:58.173Z,8.20
2019-04-24T10:30:43.728Z,7.37
2019-04-24T10:33:23.687Z,7.37
2019-04-24T10:36:01.836Z,9.20
2019-04-24T10:38:40.231Z,7.27
2019-04-24T10:41:36.965Z,7.50
2019-04-24T10:44:28.590Z,7.97
2019-04-24T10:47:23.467Z,8.73
2019-04-24T10:52:47.769Z,6.10
2019-04-24T10:55:19.886Z,8.63
2019-04-24T10:57:54.785Z,6.30
2019-04-24T11:00:27.975Z,8.07
2019-04-24T11:03:27.296Z,7.42
2019-04-24T11:05:56.162Z,5.80
2019-04-24T11:08:57.717Z,5.53
2019-04-24T11:11:50.881Z,6.50
2019-04-24T11:20:15.602Z,5.37
2019-04-24T11:23:15.021Z,6.43
2019-04-24T11:28:49.315Z,9.50
2019-04-24T11:31:40.016Z,6.10
2019-04-24T11:42:30.578Z,7.30
2019-04-24T11:45:22.901Z,5.37
2019-04-24T11:55:39.101Z,6.43
2019-04-24T12:00:55.421Z,7.93
2019-04-24T12:04:01.861Z,6.57
2019-04-24T12:06:34.249Z,4.90
2019-04-24T12:11:35.970Z,9.50
2019-04-24T12:14:19.252Z,8.03
2019-04-24T12:16:53.335Z,4.60
2019-04-24T12:19:49.499Z,5.60
2019-04-24T12:22:10.445Z,6.00
2019-04-24T12:27:17.211Z,6.30
2019-04-24T12:29:48.662Z,9.07
2019-04-24T12:32:43.459Z,5.70
2019-04-24T12:35:29.665Z,8.20
2019-04-24T12:40:48.800Z,6.77
2019-04-24T12:45:56.718Z,10.17
2019-04-24T12:48:37.366Z,5.27
2019-04-24T12:50:56.329Z,9.10
2019-04-24T12:53:42.102Z,9.47
2019-04-24T12:56:31.997Z,8.43
2019-04-24T12:59:24.753Z,3.97
2019-04-24T13:06:53.839Z,12.57
2019-04-24T13:12:44.366Z,6.07
2019-04-24T13:20:03.165Z,7.20
2019-04-24T13:22:42.002Z,6.03
2019-04-24T13:28:51.935Z,7.13
2019-04-24T13:33:43.087Z,5.40
2019-04-24T13:38:50.967Z,6.83
2019-04-24T13:41:45.764Z,7.90
2019-04-24T13:46:39.502Z,6.97
2019-04-24T13:51:25.606Z,6.70
2019-04-24T13:54:03.825Z,10.93
2019-04-24T13:56:24.851Z,4.93
2019-04-24T13:58:58.601Z,5.83
2019-04-24T14:01:43.442Z,8.20
2019-04-24T14:06:42.564Z,6.67
2019-04-24T14:12:30.544Z,5.30
2019-04-24T14:14:08.653Z,6.80
2019-04-24T14:22:05.880Z,9.80
2019-04-24T14:24:54.971Z,5.70
2019-04-24T14:27:11.547Z,9.63
2019-04-24T14:29:48.921Z,6.23
2019-04-24T14:32:14.574Z,7.93
2019-04-24T14:34:55.392Z,7.40
2019-04-24T14:37:15.761Z,7.40
2019-04-24T14:45:08.582Z,9.73
2019-04-24T14:47:34.726Z,6.40
2019-04-24T14:50:16.219Z,6.90
2019-04-24T14:52:40.509Z,9.97
2019-04-24T15:02:49.609Z,6.77
2019-04-24T15:10:25.337Z,13.97
2019-04-24T15:15:18.508Z,6.73
2019-04-24T15:18:08.546Z,7.53
2019-04-24T15:23:05.602Z,9.30
2019-04-24T15:28:13.983Z,8.17
2019-04-24T15:33:18.125Z,7.77
2019-04-24T15:36:03.089Z,6.43
2019-04-24T15:40:54.106Z,5.47
2019-04-24T15:45:54.587Z,6.17
2019-04-24T15:48:42.921Z,8.00
2019-04-24T15:50:56.691Z,7.93
2019-04-24T15:52:53.162Z,8.10
2019-04-24T15:55:31.485Z,7.30
2019-04-24T15:58:05.489Z,9.37
2019-04-24T16:03:41.105Z,5.90
2019-04-24T16:05:56.404Z,6.27
2019-04-24T16:08:25.914Z,8.43
2019-04-24T16:10:55.405Z,10.63
2019-04-24T16:13:32.582Z,4.43
2019-04-24T16:16:23.874Z,7.17
2019-04-24T16:19:16.183Z,1.80
2019-04-24T16:21:29.704Z,2.20
2019-04-24T16:26:34.136Z,1.53
2019-04-24T16:31:47.658Z,6.00
2019-04-24T16:36:47.221Z,6.47
2019-04-24T16:39:09.462Z,6.43
2019-04-24T16:49:28.980Z,1.37
2019-04-24T16:52:14.331Z,1.83
2019-04-24T16:54:21.617Z,1.60
2019-04-24T16:57:01.749Z,0.50
2019-04-24T16:59:21.970Z,1.17
2019-04-24T17:04:55.597Z,0.60
2019-04-24T17:09:51.120Z,2.00
2019-04-24T17:12:29.193Z,0.50
2019-04-24T17:14:50.530Z,2.50
2019-04-24T17:22:49.827Z,0.70
2019-04-24T17:25:11.522Z,0.50
2019-04-24T17:27:40.961Z,0.83
2019-04-24T17:32:50.711Z,5.90
2019-04-24T17:35:22.537Z,0.77
2019-04-24T17:37:20.114Z,3.80
2019-04-24T17:39:58.076Z,1.00
2019-04-24T17:42:47.585Z,1.37
2019-04-24T17:45:32.356Z,0.70
2019-04-24T17:50:32.147Z,1.43
2019-04-24T17:53:08.293Z,1.07
2019-04-24T17:55:52.077Z,1.07
2019-04-24T17:57:46.386Z,0.50
2019-04-24T18:00:12.384Z,0.60
2019-04-24T18:02:42.450Z,0.90
2019-04-24T18:05:13.049Z,1.67
2019-04-24T18:07:42.827Z,1.70
2019-04-24T18:10:13.214Z,0.70
2019-04-24T18:12:43.208Z,0.90
2019-04-24T18:15:13.140Z,1.07
2019-04-24T18:17:43.036Z,1.10
2019-04-24T18:20:13.542Z,3.80
2019-04-24T18:22:43.446Z,1.33
2019-04-24T18:25:36.713Z,0.60
2019-04-24T18:28:06.382Z,0.80
2019-04-24T18:30:36.070Z,0.67
2019-04-24T18:33:07.374Z,1.27
2019-04-24T18:35:39.127Z,0.77
2019-04-24T18:38:12.817Z,0.50
2019-04-24T18:40:41.378Z,1.23
2019-04-24T18:43:12.221Z,1.43
2019-04-24T18:45:43.724Z,1.50
2019-04-24T18:48:13.754Z,0.70
2019-04-24T18:50:43.679Z,1.50
2019-04-24T18:53:13.923Z,1.20
2019-04-24T18:55:43.800Z,1.00
2019-04-24T18:58:14.611Z,0.90
2019-04-24T19:00:45.142Z,1.00
2019-04-24T19:03:16.315Z,1.50
2019-04-24T19:05:47.151Z,0.50
2019-04-24T19:08:17.602Z,1.37
2019-04-24T19:10:47.430Z,0.83
2019-04-24T19:13:17.722Z,0.90
2019-04-24T19:15:47.569Z,0.80
2019-04-24T19:18:17.129Z,1.20
2019-04-24T19:20:46.599Z,0.97
2019-04-24T19:23:16.248Z,0.60
2019-04-24T19:25:45.734Z,0.87
2019-04-24T19:28:17.058Z,1.57
2019-04-24T19:30:46.572Z,0.80
2019-04-24T19:33:16.250Z,1.03
2019-04-24T19:35:46.598Z,1.13
2019-04-24T19:38:16.127Z,0.80
2019-04-24T19:40:45.588Z,2.03
2019-04-24T19:43:15.430Z,1.10
2019-04-24T19:45:45.015Z,0.60
2019-04-24T19:48:15.211Z,2.87
2019-04-24T19:50:44.702Z,1.20
2019-04-24T19:53:20.357Z,1.50
2019-04-24T19:55:45.574Z,1.47
2019-04-24T19:58:15.891Z,0.80
2019-04-24T20:00:45.437Z,0.93
2019-04-24T20:03:16.044Z,0.80
2019-04-24T20:05:45.933Z,1.27
2019-04-24T20:08:16.292Z,1.33
2019-04-24T20:10:55.991Z,1.33
2019-04-24T20:13:25.706Z,1.67
2019-04-24T20:15:55.415Z,1.23
2019-04-24T20:18:25.207Z,1.40
2019-04-24T20:20:54.969Z,1.27
2019-04-24T20:23:34.554Z,0.73
2019-04-24T20:25:56.255Z,1.53
2019-04-24T20:28:26.080Z,1.50
2019-04-24T20:30:55.901Z,1.60
2019-04-24T20:33:25.595Z,1.33
2019-04-24T20:35:55.271Z,1.33
2019-04-24T20:38:25.006Z,1.67
2019-04-24T20:40:54.713Z,1.10
2019-04-24T20:43:24.754Z,1.27
2019-04-24T20:45:54.482Z,1.60
2019-04-24T20:48:24.181Z,0.87
2019-04-24T20:50:53.872Z,2.20
2019-04-24T20:53:24.608Z,1.53
2019-04-24T20:55:55.025Z,1.80
2019-04-24T20:58:26.019Z,1.67
2019-04-24T21:00:55.975Z,2.80
2019-04-24T21:03:26.156Z,1.83
2019-04-24T21:06:22.316Z,1.40
2019-04-24T21:08:58.730Z,1.40
2019-04-24T21:11:29.080Z,1.23
2019-04-24T21:13:58.869Z,1.20
2019-04-24T21:16:29.130Z,1.13
2019-04-24T21:18:58.844Z,2.07
2019-04-24T21:21:28.440Z,0.80
2019-04-24T21:23:58.175Z,1.80
2019-04-24T21:26:28.603Z,1.47
2019-04-24T21:28:59.009Z,1.43
2019-04-24T21:31:28.688Z,1.23
2019-04-24T21:33:58.332Z,1.23
2019-04-24T21:36:28.227Z,1.83
2019-04-24T21:38:58.254Z,1.97
2019-04-24T21:41:27.963Z,1.80
2019-04-24T21:43:57.849Z,1.37
2019-04-24T21:46:28.169Z,1.50
2019-04-24T21:48:57.975Z,2.43
2019-04-24T21:51:27.813Z,1.20
2019-04-24T21:54:04.267Z,1.10
2019-04-24T21:56:29.076Z,1.63
2019-04-24T21:58:58.771Z,1.97
2019-04-24T22:01:52.073Z,0.80
2019-04-24T22:04:35.603Z,1.20
2019-04-24T22:07:16.567Z,1.27
2019-04-24T22:09:46.494Z,1.47
2019-04-24T22:12:16.782Z,2.00
2019-04-24T22:14:46.585Z,1.27
2019-04-24T22:17:16.415Z,2.73
2019-04-24T22:19:46.227Z,1.20
2019-04-24T22:22:26.025Z,2.20
2019-04-24T22:25:23.441Z,1.30
2019-04-24T22:27:53.341Z,0.90
2019-04-24T22:30:37.409Z,1.10
2019-04-24T22:33:07.035Z,1.60
2019-04-24T22:35:41.960Z,2.10
2019-04-24T22:38:12.523Z,1.73
2019-04-24T22:41:06.970Z,1.27
2019-04-24T22:43:36.663Z,1.43
2019-04-24T22:46:06.140Z,1.50
2019-04-24T22:48:35.567Z,2.07
2019-04-24T22:51:04.961Z,3.40
2019-04-24T22:53:35.119Z,2.90
2019-04-24T22:56:04.526Z,2.00
2019-04-24T22:58:34.833Z,2.47
2019-04-24T23:01:07.028Z,2.17
2019-04-24T23:03:36.983Z,3.00
2019-04-24T23:06:06.604Z,2.30
2019-04-24T23:08:37.438Z,3.03
2019-04-24T23:11:06.953Z,2.37
2019-04-24T23:13:36.453Z,2.80
2019-04-24T23:16:06.441Z,2.37
2019-04-24T23:18:36.313Z,3.03
2019-04-24T23:21:27.891Z,3.43
2019-04-24T23:24:10.850Z,3.00
2019-04-24T23:26:45.530Z,3.57
2019-04-24T23:29:23.971Z,3.70
2019-04-24T23:32:24.600Z,3.93
2019-04-24T23:34:54.784Z,5.10
2019-04-24T23:37:24.181Z,4.13
2019-04-24T23:39:53.587Z,4.90
2019-04-24T23:42:22.958Z,3.97
2019-04-24T23:44:52.390Z,3.80
2019-04-24T23:47:21.765Z,3.40
2019-04-24T23:49:51.883Z,3.47
2019-04-24T23:52:22.328Z,3.27
2019-04-24T23:55:02.797Z,3.90
2019-04-24T23:57:22.873Z,4.60
2019-04-24T23:59:52.279Z,3.80
